Time;durP1;ratioP1;P1;durP2;ratioP2;P2;SDS_P1;SDS_P2;PMS_P1;PMS_P2;Temp;Humidity;BMP_temperature;BMP_pressure;BME280_temperature;BME280_humidity;BME280_pressure;Samples;Min_cycle;Max_cycle;Signal;HPM_P1;HPM_P2
2021/06/06 00:00:45;;;;;;;5.95;2.47;;;17.00;95.50;;;;;;5016481;28;20054;-72
2021/06/06 00:03:34;;;;;;;10.25;2.70;;;17.10;95.60;;;;;;5016502;28;20427;-71
2021/06/06 00:06:07;;;;;;;6.28;2.75;;;17.10;95.40;;;;;;5012960;28;20498;-72
2021/06/06 00:08:34;;;;;;;5.65;2.63;;;17.10;95.30;;;;;;5016441;28;20505;-72
2021/06/06 00:11:04;;;;;;;7.28;3.30;;;17.10;95.70;;;;;;5016617;28;20036;-72
2021/06/06 00:13:30;;;;;;;6.20;2.97;;;17.00;96.00;;;;;;5016769;28;20313;-72
2021/06/06 00:15:56;;;;;;;5.03;2.85;;;17.00;95.60;;;;;;5016862;28;20100;-71
2021/06/06 00:18:23;;;;;;;8.45;3.17;;;17.00;95.20;;;;;;5016363;28;20028;-71
2021/06/06 00:20:48;;;;;;;10.23;3.30;;;16.80;96.30;;;;;;5016151;28;20030;-71
2021/06/06 00:23:14;;;;;;;8.32;3.05;;;16.80;95.90;;;;;;5016398;28;20100;-71
2021/06/06 00:25:40;;;;;;;8.35;2.10;;;16.80;95.50;;;;;;5016605;28;20057;-71
2021/06/06 00:28:06;;;;;;;4.50;1.92;;;16.80;92.80;;;;;;5016235;28;20072;-71
2021/06/06 00:30:33;;;;;;;6.10;2.10;;;16.90;93.20;;;;;;5016437;28;20081;-71
2021/06/06 00:32:59;;;;;;;2.30;1.63;;;16.90;93.10;;;;;;5016876;28;20358;-71
2021/06/06 00:35:25;;;;;;;3.15;1.70;;;16.90;94.10;;;;;;5019685;28;20034;-71
2021/06/06 00:37:52;;;;;;;5.68;1.85;;;16.90;93.90;;;;;;5019659;28;20068;-71
2021/06/06 00:40:24;;;;;;;3.28;1.80;;;17.10;93.90;;;;;;5019954;28;20029;-71
2021/06/06 00:42:51;;;;;;;6.82;2.20;;;17.10;94.40;;;;;;5019552;28;20057;-71
2021/06/06 00:45:19;;;;;;;4.57;2.08;;;17.20;93.30;;;;;;5019756;28;20033;-71
2021/06/06 00:47:45;;;;;;;5.32;2.15;;;17.20;92.80;;;;;;5019779;28;20045;-71
2021/06/06 00:50:15;;;;;;;6.43;2.10;;;17.20;93.70;;;;;;5019656;28;20420;-71
2021/06/06 00:52:43;;;;;;;6.47;2.42;;;17.10;94.40;;;;;;5019735;28;20034;-71
2021/06/06 00:55:11;;;;;;;9.18;2.53;;;16.90;95.20;;;;;;5019345;28;20405;-71
2021/06/06 00:57:38;;;;;;;12.65;3.20;;;16.80;95.40;;;;;;5019604;28;20025;-71
2021/06/06 01:00:28;;;;;;;4.30;2.78;;;16.70;95.50;;;;;;5019570;28;20029;-71
2021/06/06 01:02:54;;;;;;;6.07;2.65;;;16.80;96.20;;;;;;5019230;28;20045;-71
2021/06/06 01:05:29;;;;;;;5.30;2.58;;;17.00;96.00;;;;;;5019453;28;20030;-71
2021/06/06 01:07:55;;;;;;;5.03;2.53;;;17.00;95.20;;;;;;5019451;28;20042;-71
2021/06/06 01:10:22;;;;;;;5.57;2.45;;;16.90;92.60;;;;;;5019328;28;20026;-71
2021/06/06 01:12:58;;;;;;;5.28;2.55;;;16.90;93.20;;;;;;5019013;28;20083;-71
2021/06/06 01:15:37;;;;;;;6.10;2.05;;;16.90;93.80;;;;;;5019275;28;20034;-71
2021/06/06 01:18:28;;;;;;;3.70;1.95;;;17.00;93.30;;;;;;5018934;28;20033;-71
2021/06/06 01:21:05;;;;;;;5.55;2.17;;;17.20;94.00;;;;;;5018707;28;20033;-71
2021/06/06 01:24:06;;;;;;;5.47;1.88;;;17.30;93.80;;;;;;5018799;28;20096;-71
2021/06/06 01:26:41;;;;;;;4.88;1.85;;;17.20;92.80;;;;;;5017440;28;20044;-71
2021/06/06 01:29:33;;;;;;;8.00;1.73;;;17.30;92.90;;;;;;5034207;28;20029;-71
2021/06/06 01:32:31;;;;;;;9.43;1.60;;;17.20;94.20;;;;;;5008947;28;20426;-71
2021/06/06 01:35:08;;;;;;;4.35;2.50;;;17.10;94.10;;;;;;5018580;28;20470;-71
2021/06/06 01:37:37;;;;;;;4.28;1.80;;;17.00;92.10;;;;;;5018581;28;20042;-71
2021/06/06 01:40:13;;;;;;;2.85;1.55;;;17.00;93.70;;;;;;5018819;28;20083;-71
2021/06/06 01:42:43;;;;;;;3.38;1.70;;;17.10;94.10;;;;;;5018721;28;20022;-71
2021/06/06 01:45:20;;;;;;;4.45;1.63;;;17.20;93.70;;;;;;5017476;28;20025;-71
2021/06/06 01:47:48;;;;;;;3.88;1.27;;;17.30;93.20;;;;;;5018417;28;20441;-71
2021/06/06 01:50:18;;;;;;;4.63;1.52;;;17.30;87.50;;;;;;5018248;28;20080;-71
2021/06/06 01:52:44;;;;;;;5.35;1.50;;;17.30;89.20;;;;;;5018264;28;20036;-71
2021/06/06 01:55:14;;;;;;;2.20;1.10;;;17.30;88.80;;;;;;5018215;28;20029;-71
2021/06/06 01:57:42;;;;;;;3.10;1.23;;;17.30;88.20;;;;;;5018143;28;20026;-71
2021/06/06 02:00:12;;;;;;;5.05;1.65;;;17.10;89.40;;;;;;5018441;28;20026;-71
2021/06/06 02:02:38;;;;;;;13.10;1.95;;;17.00;88.80;;;;;;5018032;28;20026;-71
2021/06/06 02:05:16;;;;;;;4.38;1.73;;;16.90;89.00;;;;;;5018379;28;20105;-71
2021/06/06 02:07:47;;;;;;;6.13;1.75;;;16.80;90.90;;;;;;5018417;28;20116;-71
2021/06/06 02:10:27;;;;;;;5.03;1.40;;;16.50;91.80;;;;;;5017930;28;20093;-71
2021/06/06 02:13:02;;;;;;;5.45;2.00;;;16.40;93.50;;;;;;5017979;28;20414;-71
2021/06/06 02:15:30;;;;;;;;;;;16.40;92.30;;;;;;5018640;28;20027;-71
2021/06/06 02:17:58;;;;;;;3.20;1.38;;;16.30;93.40;;;;;;5018154;28;19944;-71
2021/06/06 02:20:28;;;;;;;4.45;2.00;;;16.10;96.00;;;;;;5018093;28;20030;-71
2021/06/06 02:22:56;;;;;;;9.95;2.40;;;16.00;96.20;;;;;;5017662;28;20418;-71
2021/06/06 02:25:23;;;;;;;3.45;1.50;;;16.00;96.60;;;;;;5017974;28;20108;-71
2021/06/06 02:28:15;;;;;;;5.63;2.00;;;16.10;97.50;;;;;;5017636;28;20032;-71
2021/06/06 02:31:07;;;;;;;3.08;1.67;;;16.10;97.60;;;;;;5033017;28;20072;-71
2021/06/06 02:33:52;;;;;;;5.90;1.63;;;16.10;98.00;;;;;;5017921;28;20030;-71
2021/06/06 02:36:20;;;;;;;5.03;2.28;;;16.00;97.40;;;;;;5032886;28;20033;-71
2021/06/06 02:39:26;;;;;;;5.93;2.60;;;15.90;97.90;;;;;;5017753;28;20037;-71
2021/06/06 02:42:02;;;;;;;5.07;2.60;;;15.70;98.00;;;;;;4995910;28;20057;-70
2021/06/06 02:44:30;;;;;;;;;;;15.60;98.00;;;;;;4996316;28;20026;-70
2021/06/06 02:46:59;;;;;;;5.60;2.53;;;15.60;98.00;;;;;;5008139;28;20302;-70
2021/06/06 02:49:29;;;;;;;3.40;1.50;;;15.50;98.00;;;;;;5017279;28;20406;-71
2021/06/06 02:52:16;;;;;;;5.40;1.10;;;15.50;98.00;;;;;;5017474;28;20030;-70
2021/06/06 02:54:50;;;;;;;4.70;1.33;;;15.60;98.00;;;;;;5017516;28;20343;-70
2021/06/06 02:57:18;;;;;;;3.90;1.15;;;15.70;98.00;;;;;;5017166;28;20046;-71
2021/06/06 02:59:50;;;;;;;3.35;1.20;;;15.70;97.60;;;;;;5017445;28;20105;-71
2021/06/06 03:02:21;;;;;;;1.30;1.00;;;15.70;96.50;;;;;;5017462;28;20030;-70
2021/06/06 03:04:51;;;;;;;3.50;0.93;;;15.70;96.80;;;;;;5017063;28;20442;-71
2021/06/06 03:07:22;;;;;;;1.70;0.95;;;15.70;96.80;;;;;;5017015;28;20120;-71
2021/06/06 03:09:49;;;;;;;3.25;1.00;;;15.70;97.40;;;;;;5016959;28;20041;-71
2021/06/06 03:12:17;;;;;;;4.22;0.93;;;15.70;96.60;;;;;;5017247;28;20037;-71
2021/06/06 03:14:46;;;;;;;3.00;0.95;;;15.90;95.70;;;;;;5017248;28;20112;-71
2021/06/06 03:17:16;;;;;;;3.30;1.20;;;15.90;96.90;;;;;;5017226;28;20066;-71
2021/06/06 03:19:47;;;;;;;2.60;0.98;;;15.90;96.70;;;;;;5016954;28;20112;-71
2021/06/06 03:22:17;;;;;;;2.95;1.25;;;15.90;95.30;;;;;;5016608;28;20343;-71
2021/06/06 03:24:54;;;;;;;2.92;1.08;;;15.90;95.40;;;;;;5016820;28;20025;-71
2021/06/06 03:27:23;;;;;;;3.33;1.20;;;15.80;95.40;;;;;;5016878;28;20030;-71
2021/06/06 03:30:08;;;;;;;3.10;1.30;;;15.90;94.70;;;;;;5017033;28;20037;-70
2021/06/06 03:32:38;;;;;;;1.92;1.30;;;15.90;94.20;;;;;;5017117;28;20322;-71
2021/06/06 03:35:06;;;;;;;2.75;1.70;;;15.90;94.10;;;;;;5016760;28;20033;-71
2021/06/06 03:37:32;;;;;;;3.47;1.30;;;16.00;93.60;;;;;;5017051;28;20033;-71
2021/06/06 03:39:58;;;;;;;6.05;1.70;;;16.00;92.30;;;;;;5016723;28;20108;-71
2021/06/06 03:42:24;;;;;;;4.00;1.20;;;16.00;92.00;;;;;;5016667;28;20106;-71
2021/06/06 03:44:51;;;;;;;4.28;1.13;;;16.10;91.20;;;;;;5017014;28;20018;-71
2021/06/06 03:47:16;;;;;;;3.55;1.40;;;16.20;88.60;;;;;;5016962;28;20041;-71
2021/06/06 03:49:42;;;;;;;3.33;1.25;;;16.20;88.00;;;;;;5016534;28;20022;-71
2021/06/06 03:52:08;;;;;;;2.15;1.10;;;16.30;86.40;;;;;;5016892;28;20030;-71
2021/06/06 03:54:35;;;;;;;1.77;0.73;;;16.40;87.30;;;;;;5016859;28;20026;-70
2021/06/06 03:57:01;;;;;;;2.60;0.98;;;16.40;86.00;;;;;;5016548;28;20068;-71
2021/06/06 03:59:26;;;;;;;4.38;0.63;;;16.40;87.70;;;;;;5016551;28;20045;-71
2021/06/06 04:01:52;;;;;;;3.35;1.00;;;16.30;89.40;;;;;;5016567;28;20061;-71
2021/06/06 04:04:19;;;;;;;5.45;1.10;;;16.20;90.90;;;;;;5016617;28;20022;-71
2021/06/06 04:06:45;;;;;;;3.35;1.70;;;16.00;92.30;;;;;;5016692;28;20026;-71
2021/06/06 04:09:11;;;;;;;4.50;1.55;;;15.80;94.80;;;;;;5018765;28;20029;-71
2021/06/06 04:11:37;;;;;;;4.65;1.45;;;15.70;95.50;;;;;;5020102;28;20029;-71
2021/06/06 04:14:04;;;;;;;2.92;1.17;;;15.70;95.50;;;;;;5020496;28;20022;-71
2021/06/06 04:16:30;;;;;;;3.55;0.90;;;15.80;95.90;;;;;;5020054;28;20045;-71
2021/06/06 04:18:56;;;;;;;1.83;0.82;;;15.80;94.90;;;;;;5020372;28;20014;-71
2021/06/06 04:21:25;;;;;;;2.63;1.00;;;15.70;94.40;;;;;;5020094;28;20033;-71
2021/06/06 04:23:51;;;;;;;1.63;0.95;;;15.70;95.10;;;;;;5020330;28;20152;-70
2021/06/06 04:26:17;;;;;;;3.63;1.20;;;15.70;95.40;;;;;;5020156;28;20038;-71
2021/06/06 04:28:43;;;;;;;2.95;1.67;;;15.80;95.00;;;;;;5035320;28;20036;-71
2021/06/06 04:31:10;;;;;;;5.40;2.90;;;15.90;94.50;;;;;;5019763;28;20030;-72
2021/06/06 04:33:37;;;;;;;47.17;26.67;;;15.90;95.70;;;;;;5020108;28;20080;-70
2021/06/06 04:36:03;;;;;;;32.78;18.33;;;15.80;94.20;;;;;;5019997;28;20088;-70
2021/06/06 04:38:29;;;;;;;47.15;30.00;;;15.90;92.10;;;;;;5019979;28;20381;-71
2021/06/06 04:40:58;;;;;;;3.85;2.38;;;16.10;91.50;;;;;;5019916;28;20022;-71
2021/06/06 04:43:24;;;;;;;3.38;1.30;;;16.30;90.30;;;;;;5019721;28;20053;-71
2021/06/06 04:45:50;;;;;;;4.47;1.75;;;16.40;91.40;;;;;;5020028;28;20314;-71
2021/06/06 04:48:23;;;;;;;2.55;1.10;;;16.30;93.40;;;;;;5019800;28;20034;-71
2021/06/06 04:50:50;;;;;;;2.67;1.63;;;16.30;91.40;;;;;;5019681;28;20045;-71
2021/06/06 04:53:16;;;;;;;4.10;1.20;;;16.20;94.70;;;;;;5019783;28;20026;-71
2021/06/06 04:55:43;;;;;;;1.55;0.88;;;16.20;95.00;;;;;;5019349;28;20026;-71
2021/06/06 04:58:17;;;;;;;5.82;1.48;;;16.20;95.80;;;;;;5019682;28;20300;-71
2021/06/06 05:00:43;;;;;;;4.53;1.20;;;16.20;96.20;;;;;;5019350;28;20521;-71
2021/06/06 05:03:11;;;;;;;2.72;1.20;;;16.10;96.40;;;;;;5019266;28;20030;-71
2021/06/06 05:05:38;;;;;;;8.25;1.90;;;16.10;95.70;;;;;;5019477;28;20111;-71
2021/06/06 05:08:05;;;;;;;1.95;1.10;;;16.10;95.40;;;;;;5019133;28;20041;-71
2021/06/06 05:10:34;;;;;;;3.05;1.00;;;16.30;95.30;;;;;;5019308;28;20314;-72
2021/06/06 05:13:01;;;;;;;2.60;1.33;;;16.40;95.30;;;;;;5019057;28;20096;-71
2021/06/06 05:15:26;;;;;;;2.45;0.98;;;16.50;96.10;;;;;;5018969;28;20440;-73
2021/06/06 05:17:53;;;;;;;4.43;0.90;;;16.60;95.80;;;;;;5019296;28;20034;-73
2021/06/06 05:20:23;;;;;;;4.45;1.10;;;16.70;96.30;;;;;;5018630;28;20057;-73
2021/06/06 05:22:49;;;;;;;3.75;1.70;;;16.60;95.40;;;;;;5018693;28;20319;-73
2021/06/06 05:25:15;;;;;;;4.28;1.95;;;16.50;93.80;;;;;;5018755;28;20040;-73
2021/06/06 05:27:41;;;;;;;1.60;0.90;;;16.60;95.20;;;;;;5018749;28;20033;-73
2021/06/06 05:30:13;;;;;;;1.98;0.70;;;16.70;94.30;;;;;;5018674;28;20426;-73
2021/06/06 05:32:39;;;;;;;6.68;1.45;;;16.60;94.90;;;;;;5019009;28;20030;-72
2021/06/06 05:35:05;;;;;;;2.45;1.08;;;16.50;95.60;;;;;;5018636;28;20116;-73
2021/06/06 05:37:31;;;;;;;2.35;0.77;;;16.60;95.80;;;;;;5018894;28;20319;-73
2021/06/06 05:39:57;;;;;;;1.90;0.85;;;16.60;95.60;;;;;;5018871;28;20029;-73
2021/06/06 05:42:23;;;;;;;2.47;0.90;;;16.80;95.40;;;;;;5018491;28;20057;-70
2021/06/06 05:44:49;;;;;;;1.65;0.80;;;17.00;95.40;;;;;;5018766;28;20034;-70
2021/06/06 05:47:15;;;;;;;3.05;0.88;;;17.20;94.70;;;;;;5018435;28;20041;-70
2021/06/06 05:49:41;;;;;;;3.67;1.13;;;17.60;94.20;;;;;;5018403;28;20033;-70
2021/06/06 05:52:07;;;;;;;1.85;0.77;;;18.10;91.40;;;;;;5018582;28;20033;-72
2021/06/06 05:54:32;;;;;;;2.53;0.70;;;18.50;86.00;;;;;;5018275;28;20056;-71
2021/06/06 05:56:58;;;;;;;3.10;0.80;;;18.90;84.90;;;;;;5018261;28;20025;-71
2021/06/06 05:59:24;;;;;;;3.13;0.85;;;19.60;85.90;;;;;;5018200;28;20026;-71
2021/06/06 06:01:49;;;;;;;2.83;0.75;;;20.30;80.10;;;;;;5018475;28;20080;-71
2021/06/06 06:04:15;;;;;;;3.00;0.60;;;20.70;79.00;;;;;;5018427;28;20480;-71
2021/06/06 06:06:41;;;;;;;4.10;1.65;;;20.60;74.90;;;;;;5018320;28;20048;-71
2021/06/06 06:09:07;;;;;;;3.53;0.75;;;20.40;76.60;;;;;;5018042;28;20440;-71
2021/06/06 06:11:33;;;;;;;2.60;0.60;;;20.10;78.20;;;;;;5018194;28;20040;-71
2021/06/06 06:14:00;;;;;;;2.85;0.50;;;20.00;78.20;;;;;;5018224;28;20042;-70
2021/06/06 06:16:30;;;;;;;2.53;0.60;;;19.80;80.80;;;;;;5018105;28;20034;-71
2021/06/06 06:18:57;;;;;;;3.13;0.80;;;19.60;85.20;;;;;;5018154;28;20030;-70
2021/06/06 06:21:25;;;;;;;3.08;0.90;;;19.40;87.50;;;;;;5017591;28;20493;-72
2021/06/06 06:23:51;;;;;;;4.40;0.90;;;19.30;88.70;;;;;;5017775;28;20045;-72
2021/06/06 06:26:18;;;;;;;5.78;0.90;;;19.40;87.50;;;;;;5017659;28;20030;-72
2021/06/06 06:28:46;;;;;;;4.28;0.88;;;19.50;86.90;;;;;;5017653;28;20446;-72
2021/06/06 06:31:14;;;;;;;3.17;0.80;;;19.60;87.40;;;;;;5017221;28;20060;-72
2021/06/06 06:33:40;;;;;;;2.67;1.27;;;20.30;85.30;;;;;;5017568;28;20430;-72
2021/06/06 06:36:06;;;;;;;2.03;0.93;;;20.40;79.80;;;;;;5017479;28;20022;-71
2021/06/06 06:38:33;;;;;;;2.15;0.63;;;20.20;78.30;;;;;;5017831;28;20044;-71
2021/06/06 06:40:59;;;;;;;4.53;0.70;;;19.80;80.20;;;;;;5017785;28;20029;-70
2021/06/06 06:43:25;;;;;;;3.47;0.88;;;19.70;81.30;;;;;;5017749;28;20106;-70
2021/06/06 06:45:51;;;;;;;2.20;0.70;;;19.80;83.00;;;;;;5017322;28;20389;-70
2021/06/06 06:48:21;;;;;;;1.25;0.82;;;19.80;86.80;;;;;;5017367;28;20457;-70
2021/06/06 06:50:47;;;;;;;3.65;0.90;;;20.00;85.00;;;;;;5017222;28;20113;-70
2021/06/06 06:53:14;;;;;;;1.40;0.60;;;20.80;81.50;;;;;;5017594;28;20097;-71
2021/06/06 06:55:40;;;;;;;1.80;0.90;;;21.50;80.60;;;;;;5017485;28;20049;-71
2021/06/06 06:58:06;;;;;;;4.43;0.90;;;21.90;79.60;;;;;;5017507;28;20337;-71
2021/06/06 07:00:38;;;;;;;2.05;0.75;;;22.00;80.40;;;;;;5017469;28;20125;-71
2021/06/06 07:03:06;;;;;;;3.72;1.25;;;21.70;77.60;;;;;;5017125;28;20026;-70
2021/06/06 07:05:33;;;;;;;5.50;1.10;;;21.40;81.30;;;;;;5017354;28;20328;-71
2021/06/06 07:07:59;;;;;;;2.95;0.80;;;21.90;82.80;;;;;;5017362;28;20030;-71
2021/06/06 07:10:28;;;;;;;4.20;0.80;;;22.40;82.90;;;;;;5017286;28;20057;-71
2021/06/06 07:12:54;;;;;;;3.15;1.30;;;22.40;80.10;;;;;;5016966;28;20073;-71
2021/06/06 07:15:20;;;;;;;2.42;1.13;;;22.50;78.40;;;;;;5017304;28;20030;-71
2021/06/06 07:17:46;;;;;;;2.38;1.00;;;22.60;78.80;;;;;;5017246;28;20485;-72
2021/06/06 07:20:16;;;;;;;3.58;1.10;;;22.40;78.00;;;;;;5015772;28;20056;-72
2021/06/06 07:22:42;;;;;;;4.80;1.40;;;22.30;78.30;;;;;;5015536;28;20117;-72
2021/06/06 07:25:10;;;;;;;2.28;1.17;;;22.40;79.60;;;;;;5015311;28;20120;-74
2021/06/06 07:27:38;;;;;;;4.70;1.38;;;22.60;78.00;;;;;;5015132;28;20029;-75
2021/06/06 07:30:10;;;;;;;5.80;1.45;;;23.10;77.80;;;;;;5015232;28;20351;-74
2021/06/06 07:32:37;;;;;;;2.95;0.90;;;23.20;78.40;;;;;;5015819;28;20022;-73
2021/06/06 07:35:05;;;;;;;6.15;1.60;;;23.20;77.30;;;;;;5016349;28;20037;-73
2021/06/06 07:37:32;;;;;;;2.67;0.90;;;22.90;77.20;;;;;;5015724;28;20026;-73
2021/06/06 07:39:58;;;;;;;19.67;2.22;;;22.60;78.50;;;;;;5032511;28;20044;-72
2021/06/06 07:42:23;;;;;;;2.53;1.13;;;22.40;76.50;;;;;;5017740;28;20406;-73
2021/06/06 07:45:22;;;;;;;;;;;22.10;77.70;;;;;;5135932;27;20329;-72
2021/06/06 07:47:48;;;;;;;2.45;0.98;;;22.00;79.80;;;;;;5134142;28;20206;-75
2021/06/06 07:50:20;;;;;;;4.35;1.00;;;21.80;78.60;;;;;;5135100;27;20053;-75
2021/06/06 07:52:46;;;;;;;2.63;1.02;;;21.70;82.90;;;;;;5135276;28;20027;-71
2021/06/06 07:55:20;;;;;;;3.08;1.13;;;21.70;80.70;;;;;;5134988;27;20032;-71
2021/06/06 07:57:46;;;;;;;3.13;0.93;;;21.50;80.30;;;;;;5135080;28;20031;-74
2021/06/06 08:00:18;;;;;;;3.70;1.00;;;21.40;81.20;;;;;;5135086;28;20025;-71
2021/06/06 08:02:44;;;;;;;2.33;1.63;;;21.40;80.90;;;;;;5134670;27;20368;-79
2021/06/06 08:05:10;;;;;;;2.20;1.08;;;21.40;79.90;;;;;;5134972;28;20053;-76
2021/06/06 08:07:36;;;;;;;2.15;1.00;;;21.50;82.00;;;;;;5134630;28;20024;-77
2021/06/06 08:10:08;;;;;;;4.30;1.23;;;21.50;82.80;;;;;;5134880;28;20028;-74
2021/06/06 08:12:34;;;;;;;3.88;1.15;;;21.70;80.80;;;;;;5132602;28;20156;-77
2021/06/06 08:14:59;;;;;;;5.35;1.10;;;21.80;82.50;;;;;;5133695;28;20055;-81
2021/06/06 08:17:25;;;;;;;1.77;1.00;;;21.70;79.90;;;;;;5134750;28;20039;-78
2021/06/06 08:19:51;;;;;;;5.00;1.00;;;21.50;82.20;;;;;;5133631;28;20353;-71
2021/06/06 08:22:19;;;;;;;3.67;1.00;;;21.20;80.90;;;;;;5134431;28;20031;-71
2021/06/06 08:24:45;;;;;;;1.25;0.80;;;21.10;79.80;;;;;;5134301;28;20480;-71
2021/06/06 08:27:11;;;;;;;2.72;1.15;;;20.90;82.40;;;;;;5134552;28;20103;-72
2021/06/06 08:29:39;;;;;;;2.03;0.90;;;20.70;83.90;;;;;;5133847;28;20380;-72
2021/06/06 08:32:06;;;;;;;2.58;1.05;;;20.60;83.80;;;;;;5132569;27;20024;-72
2021/06/06 08:34:32;;;;;;;2.95;0.90;;;20.50;84.70;;;;;;5133316;28;20034;-72
2021/06/06 08:36:58;;;;;;;3.15;1.10;;;20.40;83.60;;;;;;5133808;28;20023;-78
2021/06/06 08:39:32;;;;;;;6.43;1.33;;;20.40;83.20;;;;;;5134298;28;20047;-72
2021/06/06 08:42:19;;;;;;;4.07;0.98;;;20.30;82.10;;;;;;5134354;28;20088;-72
2021/06/06 08:45:13;;;;;;;2.35;0.93;;;20.10;82.90;;;;;;5133810;28;20348;-73
2021/06/06 08:47:39;;;;;;;5.60;1.88;;;20.10;83.80;;;;;;5133176;28;20094;-73
2021/06/06 08:50:16;;;;;;;4.63;1.35;;;20.10;87.00;;;;;;5134101;28;20107;-73
2021/06/06 08:53:15;;;;;;;3.40;1.15;;;20.00;87.20;;;;;;5134133;28;20019;-73
2021/06/06 08:56:22;;;;;;;1.30;0.90;;;20.00;86.80;;;;;;5125797;28;20031;-71
2021/06/06 08:58:56;;;;;;;3.90;1.25;;;20.00;87.30;;;;;;5120011;28;20030;-71
2021/06/06 09:01:37;;;;;;;2.92;1.40;;;20.00;87.70;;;;;;5119800;28;20416;-72
2021/06/06 09:04:23;;;;;;;2.47;1.20;;;20.00;86.90;;;;;;5119902;28;20023;-68
2021/06/06 09:06:57;;;;;;;3.25;0.95;;;20.10;88.20;;;;;;5120140;28;20377;-71
2021/06/06 09:09:27;;;;;;;3.45;1.17;;;20.10;86.80;;;;;;5120043;28;20047;-71
2021/06/06 09:11:58;;;;;;;6.68;1.25;;;20.30;86.60;;;;;;5119651;28;20407;-70
2021/06/06 09:14:24;;;;;;;3.75;1.13;;;20.30;87.20;;;;;;5119722;28;20034;-71
2021/06/06 09:16:56;;;;;;;5.80;1.63;;;20.40;86.30;;;;;;5119959;28;20024;-70
2021/06/06 09:19:22;;;;;;;2.97;1.23;;;20.40;86.60;;;;;;5119251;28;20323;-71
2021/06/06 09:21:57;;;;;;;4.75;1.30;;;20.60;87.80;;;;;;5118898;28;20028;-71
2021/06/06 09:24:33;;;;;;;3.10;1.40;;;20.70;85.80;;;;;;5118903;28;20110;-71
2021/06/06 09:27:15;;;;;;;3.15;1.40;;;20.90;85.10;;;;;;5119168;28;20020;-72
2021/06/06 09:29:42;;;;;;;3.75;1.40;;;21.00;84.30;;;;;;5118663;28;20430;-78
2021/06/06 09:32:35;;;;;;;4.55;1.52;;;21.20;87.80;;;;;;5118615;28;20418;-70
2021/06/06 09:35:32;;;;;;;3.15;1.40;;;21.50;85.20;;;;;;5116065;28;20035;-73
2021/06/06 09:38:32;;;;;;;3.13;1.38;;;21.60;86.40;;;;;;5117671;28;20023;-71
2021/06/06 09:41:13;;;;;;;7.90;4.60;;;21.70;83.30;;;;;;5116942;28;20028;-70
2021/06/06 09:43:39;;;;;;;6.07;3.20;;;21.60;83.00;;;;;;5116038;28;20048;-74
2021/06/06 09:46:18;;;;;;;5.00;2.78;;;21.40;83.80;;;;;;5117706;28;20430;-71
2021/06/06 09:48:46;;;;;;;4.43;1.35;;;21.40;83.40;;;;;;5118009;27;20098;-75
2021/06/06 09:51:30;;;;;;;1.52;1.00;;;21.50;82.10;;;;;;5117365;28;20019;-70
2021/06/06 09:54:07;;;;;;;2.08;1.33;;;21.60;83.30;;;;;;5116492;28;20412;-71
2021/06/06 09:56:34;;;;;;;5.97;1.50;;;21.70;83.40;;;;;;5117145;28;20039;-71
2021/06/06 09:59:28;;;;;;;7.18;1.67;;;21.70;82.90;;;;;;5116416;28;20055;-70
2021/06/06 10:02:11;;;;;;;5.60;1.40;;;21.70;84.00;;;;;;5115403;28;20035;-70
2021/06/06 10:04:43;;;;;;;3.92;1.30;;;21.60;82.30;;;;;;5116895;28;20032;-70
2021/06/06 10:07:28;;;;;;;2.42;1.33;;;21.40;82.60;;;;;;5116854;28;20020;-71
2021/06/06 10:09:56;;;;;;;3.10;1.30;;;21.20;81.90;;;;;;5118569;28;20023;-73
2021/06/06 10:12:32;;;;;;;2.85;1.50;;;21.10;82.30;;;;;;5116420;28;20020;-70
2021/06/06 10:15:05;;;;;;;3.22;1.30;;;21.10;82.30;;;;;;5117719;28;20110;-70
2021/06/06 10:17:42;;;;;;;4.15;1.30;;;21.10;83.40;;;;;;5103918;28;20081;-71
2021/06/06 10:20:22;;;;;;;4.40;1.42;;;21.20;84.40;;;;;;5103558;28;20090;-69
2021/06/06 10:22:54;;;;;;;3.05;1.25;;;21.40;85.40;;;;;;5097152;28;20052;-72
2021/06/06 10:25:40;;;;;;;2.42;1.20;;;21.50;82.50;;;;;;5097284;28;20028;-71
2021/06/06 10:28:07;;;;;;;3.05;1.30;;;21.60;82.20;;;;;;5097857;28;20312;-79
2021/06/06 10:30:40;;;;;;;2.42;1.00;;;21.80;80.50;;;;;;5097342;28;20027;-73
2021/06/06 10:33:22;;;;;;;1.85;0.90;;;21.90;79.70;;;;;;5096944;28;20040;-71
2021/06/06 10:35:49;;;;;;;2.22;1.17;;;22.10;77.60;;;;;;5096538;28;20306;-73
2021/06/06 10:38:15;;;;;;;4.07;0.98;;;22.40;75.70;;;;;;5096762;28;20016;-71
2021/06/06 10:40:47;;;;;;;4.95;1.10;;;22.90;78.50;;;;;;5096718;28;20035;-76
2021/06/06 10:43:41;;;;;;;5.65;1.80;;;23.40;73.30;;;;;;5095318;28;20301;-71
2021/06/06 10:46:24;;;;;;;5.72;2.25;;;24.00;71.20;;;;;;5096700;28;20051;-72
2021/06/06 10:49:08;;;;;;;7.85;1.70;;;25.70;70.90;;;;;;5096790;28;20040;-80
2021/06/06 10:51:47;;;;;;;13.15;1.50;;;27.30;67.20;;;;;;5096342;28;20056;-72
2021/06/06 10:54:31;;;;;;;6.18;1.63;;;28.00;66.70;;;;;;5096518;28;20058;-76
2021/06/06 10:57:02;;;;;;;6.85;1.85;;;28.00;65.70;;;;;;5095936;28;20081;-71
2021/06/06 10:59:33;;;;;;;4.75;1.27;;;27.50;66.70;;;;;;5094596;28;20059;-81
2021/06/06 11:02:00;;;;;;;1.92;1.00;;;27.30;63.90;;;;;;5095363;28;20031;-75
2021/06/06 11:04:46;;;;;;;6.07;1.33;;;26.40;64.50;;;;;;5095509;28;20035;-81
2021/06/06 11:07:18;;;;;;;4.07;1.30;;;25.90;69.50;;;;;;5095431;28;20024;-69
2021/06/06 11:09:57;;;;;;;2.78;1.33;;;25.80;70.10;;;;;;5096091;28;20040;-71
2021/06/06 11:12:32;;;;;;;4.75;1.85;;;25.80;68.30;;;;;;5095959;28;20028;-70
2021/06/06 11:14:58;;;;;;;6.80;2.05;;;25.70;70.40;;;;;;5096416;28;20044;-78
2021/06/06 11:17:39;;;;;;;5.03;0.70;;;25.70;70.50;;;;;;5095900;28;20028;-71
2021/06/06 11:20:30;;;;;;;2.03;1.25;;;25.70;64.20;;;;;;5095463;28;20123;-72
2021/06/06 11:22:57;;;;;;;8.82;5.03;;;25.50;67.90;;;;;;5095586;28;20036;-71
2021/06/06 11:25:46;;;;;;;2.28;1.60;;;25.20;68.60;;;;;;5095442;28;20032;-71
2021/06/06 11:28:34;;;;;;;3.03;1.40;;;24.90;69.50;;;;;;5095449;28;20119;-70
2021/06/06 11:31:01;;;;;;;4.97;1.00;;;24.90;71.60;;;;;;5095186;28;20024;-75
2021/06/06 11:33:33;;;;;;;5.90;0.90;;;25.30;70.00;;;;;;5095842;28;20048;-70
2021/06/06 11:35:59;;;;;;;5.25;1.88;;;25.90;69.70;;;;;;5095626;28;20032;-68
2021/06/06 11:38:25;;;;;;;3.30;1.00;;;26.50;69.40;;;;;;5095502;28;20028;-71
2021/06/06 11:41:17;;;;;;;4.90;0.68;;;27.10;64.90;;;;;;5095558;28;20075;-70
2021/06/06 11:44:07;;;;;;;3.47;1.13;;;27.40;66.60;;;;;;5064605;28;20052;-71
2021/06/06 11:47:05;;;;;;;2.50;0.70;;;27.80;63.30;;;;;;5096905;28;20374;-71
2021/06/06 11:49:55;;;;;;;4.13;0.80;;;27.90;66.20;;;;;;5096557;28;20408;-71
2021/06/06 11:52:24;;;;;;;2.75;0.82;;;27.40;63.60;;;;;;5096548;28;20416;-71
2021/06/06 11:55:00;;;;;;;2.28;0.80;;;26.70;64.00;;;;;;5096538;28;20115;-75
2021/06/06 11:57:39;;;;;;;2.75;0.82;;;26.00;63.10;;;;;;5096803;28;20031;-70
2021/06/06 12:00:16;;;;;;;4.75;0.80;;;25.50;64.70;;;;;;5096561;28;20397;-79
2021/06/06 12:02:43;;;;;;;2.38;0.63;;;25.80;69.00;;;;;;5095078;28;20416;-71
2021/06/06 12:05:18;;;;;;;4.43;0.90;;;26.20;65.40;;;;;;5095737;28;20306;-72
2021/06/06 12:07:44;;;;;;;5.00;1.15;;;26.40;65.10;;;;;;5095648;28;20027;-70
2021/06/06 12:10:29;;;;;;;2.10;0.60;;;26.70;73.70;;;;;;5096209;28;20028;-71
2021/06/06 12:12:58;;;;;;;2.28;0.75;;;27.00;63.30;;;;;;5094354;28;20020;-72
2021/06/06 12:15:28;;;;;;;1.52;0.50;;;26.90;63.70;;;;;;5094801;28;20036;-70
2021/06/06 12:18:12;;;;;;;6.53;0.60;;;26.50;65.80;;;;;;5094157;28;20312;-72
2021/06/06 12:20:56;;;;;;;1.63;0.88;;;26.10;62.20;;;;;;5095439;28;20420;-68
2021/06/06 12:23:28;;;;;;;2.55;1.00;;;25.40;65.30;;;;;;5095744;28;20149;-75
2021/06/06 12:26:16;;;;;;;6.22;1.15;;;24.90;67.40;;;;;;5095847;28;20107;-70
2021/06/06 12:28:45;;;;;;;9.43;0.73;;;24.70;66.60;;;;;;5095172;28;20035;-71
2021/06/06 12:31:28;;;;;;;1.73;0.60;;;24.70;67.90;;;;;;5098132;28;20028;-71
2021/06/06 12:33:56;;;;;;;6.22;0.85;;;24.50;67.00;;;;;;5099037;28;20024;-75
2021/06/06 12:36:27;;;;;;;6.18;1.02;;;24.40;66.90;;;;;;5099329;28;20418;-78
2021/06/06 12:38:59;;;;;;;5.35;1.05;;;24.20;68.00;;;;;;5099852;28;20351;-72
2021/06/06 12:41:27;;;;;;;2.00;0.70;;;24.00;68.30;;;;;;5099511;28;20043;-74
2021/06/06 12:43:55;;;;;;;3.35;0.82;;;23.90;69.40;;;;;;5099225;28;20055;-77
2021/06/06 12:46:22;;;;;;;10.50;0.98;;;23.90;68.40;;;;;;5104514;28;20020;-70
2021/06/06 12:49:02;;;;;;;3.05;0.57;;;23.90;70.20;;;;;;5108191;28;20404;-70
2021/06/06 12:51:27;;;;;;;3.13;0.80;;;23.90;67.70;;;;;;5109109;28;20102;-71
2021/06/06 12:54:04;;;;;;;6.28;0.70;;;23.90;71.80;;;;;;5107968;28;20109;-72
2021/06/06 12:56:31;;;;;;;2.40;0.80;;;24.00;70.10;;;;;;5099111;28;20036;-77
2021/06/06 12:59:12;;;;;;;4.68;1.80;;;23.90;72.10;;;;;;5099011;28;20048;-71
2021/06/06 13:01:39;;;;;;;2.05;0.82;;;23.60;71.00;;;;;;5099845;28;20036;-71
2021/06/06 13:04:21;;;;;;;2.03;1.15;;;23.50;71.70;;;;;;5099491;28;20044;-76
2021/06/06 13:06:47;;;;;;;4.72;0.77;;;23.20;72.40;;;;;;5099103;28;20439;-70
2021/06/06 13:09:32;;;;;;;3.05;0.90;;;22.90;76.10;;;;;;5099370;28;20481;-71
2021/06/06 13:12:16;;;;;;;2.17;0.80;;;22.60;78.10;;;;;;5099658;28;20042;-71